Time;durP1;ratioP1;P1;durP2;ratioP2;P2;SDS_P1;SDS_P2;PMS_P1;PMS_P2;Temp;Humidity;BMP_temperature;BMP_pressure;BME280_temperature;BME280_humidity;BME280_pressure;Samples;Min_cycle;Max_cycle;Signal;HPM_P1;HPM_P2
2022/11/16 00:00:29;;;;;;;60.53;56.75;;;;;;;13.82;75.57;100788.72;5845028;22;105145;-51
2022/11/16 00:02:56;;;;;;;63.10;59.45;;;;;;;13.82;75.37;100785.97;4980976;28;104085;-51
2022/11/16 00:05:22;;;;;;;64.32;60.67;;;;;;;13.81;75.34;100779.69;4985969;28;102040;-51
2022/11/16 00:07:49;;;;;;;60.88;57.28;;;;;;;13.83;75.69;100782.13;4982002;28;102470;-51
2022/11/16 00:10:17;;;;;;;61.58;57.85;;;;;;;13.81;75.47;100771.50;4988657;28;102453;-51
2022/11/16 00:12:44;;;;;;;61.83;58.03;;;;;;;13.82;75.31;100775.03;4980058;28;103960;-51
2022/11/16 00:15:11;;;;;;;59.30;55.72;;;;;;;13.83;75.40;100776.66;4978290;28;102035;-51
2022/11/16 00:17:38;;;;;;;59.83;56.40;;;;;;;13.82;75.43;100770.38;4993222;28;102426;-51
2022/11/16 00:20:06;;;;;;;61.92;58.33;;;;;;;13.82;75.43;100758.63;4991362;28;102331;-51
2022/11/16 00:22:32;;;;;;;57.53;53.95;;;;;;;13.82;75.50;100766.81;4989150;28;103986;-51
2022/11/16 00:24:58;;;;;;;60.30;56.80;;;;;;;13.82;75.59;100764.09;4990964;28;102031;-51
2022/11/16 00:27:26;;;;;;;60.10;56.60;;;;;;;13.83;75.44;100761.06;4982660;28;102323;-51
2022/11/16 00:29:55;;;;;;;63.22;59.47;;;;;;;13.83;75.30;100754.78;4980595;28;102217;-51
2022/11/16 00:32:22;;;;;;;57.83;54.47;;;;;;;13.81;75.28;100754.22;4989182;28;104031;-51
2022/11/16 00:34:48;;;;;;;59.83;56.22;;;;;;;13.82;75.62;100747.69;4988379;28;102712;-51
2022/11/16 00:37:15;;;;;;;64.25;60.50;;;;;;;13.82;75.60;100742.22;4987982;28;102023;-51
2022/11/16 00:39:42;;;;;;;62.22;58.58;;;;;;;13.82;75.60;100728.53;4983159;28;102168;-51
2022/11/16 00:42:08;;;;;;;58.28;54.83;;;;;;;13.82;75.43;100731.25;4976925;28;104118;-50
2022/11/16 00:44:36;;;;;;;58.75;55.33;;;;;;;13.81;75.39;100738.66;4977495;28;102249;-51
2022/11/16 00:47:02;;;;;;;58.15;54.65;;;;;;;13.81;75.59;100727.72;4970379;28;104043;-51
2022/11/16 00:49:30;;;;;;;64.82;61.08;;;;;;;13.81;75.72;100722.25;4961581;28;102150;-51
2022/11/16 00:51:56;;;;;;;58.33;54.72;;;;;;;13.80;75.53;100714.31;4960638;28;103917;-51
2022/11/16 00:54:23;;;;;;;56.30;53.05;;;;;;;13.82;75.43;100717.59;4966173;28;102345;-51
2022/11/16 00:56:49;;;;;;;65.68;61.75;;;;;;;13.81;75.68;100710.47;4958103;28;102545;-51
2022/11/16 00:59:22;;;;;;;58.30;54.78;;;;;;;13.82;75.49;100714.84;4959031;28;102302;-51
2022/11/16 01:01:50;;;;;;;61.13;57.45;;;;;;;13.80;75.38;100709.66;4962162;28;104037;-51
2022/11/16 01:04:17;;;;;;;57.30;53.95;;;;;;;13.81;75.49;100707.72;4968693;28;102285;-51
2022/11/16 01:06:43;;;;;;;67.63;63.85;;;;;;;13.82;75.29;100703.91;4959866;28;102203;-51
2022/11/16 01:09:10;;;;;;;64.53;60.83;;;;;;;13.82;75.52;100712.13;4958785;28;102335;-51
2022/11/16 01:14:24;;;;;;;58.15;54.78;;;;;;;13.82;75.52;100703.91;4956743;28;102617;-51
2022/11/16 01:16:52;;;;;;;55.67;52.28;;;;;;;13.83;75.29;100700.06;4964890;28;102199;-51
2022/11/16 01:19:18;;;;;;;63.30;59.67;;;;;;;13.82;75.23;100693.78;4975150;28;102441;-51
2022/11/16 01:21:45;;;;;;;55.20;51.88;;;;;;;13.81;75.54;100696.78;4966220;28;103938;-51
2022/11/16 01:24:12;;;;;;;55.70;52.38;;;;;;;13.82;75.48;100690.22;4962955;28;102504;-51
2022/11/16 01:26:39;;;;;;;66.68;62.67;;;;;;;13.80;75.56;100684.22;4960483;28;102443;-51
2022/11/16 01:29:05;;;;;;;57.45;54.13;;;;;;;13.81;75.49;100694.06;4960385;28;102393;-51
2022/11/16 01:31:32;;;;;;;59.58;56.03;;;;;;;13.82;75.37;100695.72;4961217;28;103875;-51
2022/11/16 01:34:00;;;;;;;59.70;56.13;;;;;;;13.81;75.57;100691.31;4957396;28;102499;-51
2022/11/16 01:36:26;;;;;;;65.63;61.90;;;;;;;13.82;75.40;100690.22;4955996;28;102086;-51
2022/11/16 01:38:56;;;;;;;62.13;58.30;;;;;;;13.80;75.50;100674.09;4963960;28;102112;-51
2022/11/16 01:41:24;;;;;;;57.20;53.92;;;;;;;13.81;75.65;100674.91;4973269;28;103907;-51
2022/11/16 01:43:53;;;;;;;58.58;55.13;;;;;;;13.80;75.64;100674.09;4974601;28;102849;-51
2022/11/16 01:46:20;;;;;;;54.45;51.15;;;;;;;13.82;75.39;100671.91;4970083;28;102040;-51
2022/11/16 01:48:49;;;;;;;62.38;58.80;;;;;;;13.81;75.44;100667.53;4957665;28;102118;-51
2022/11/16 01:51:17;;;;;;;56.70;53.35;;;;;;;13.81;75.50;100666.69;4960411;28;104047;-51
2022/11/16 01:53:44;;;;;;;58.90;55.55;;;;;;;13.81;75.34;100658.50;4956944;28;102123;-51
2022/11/16 01:56:11;;;;;;;59.53;56.13;;;;;;;13.80;75.60;100656.88;4963776;28;102352;-51
2022/11/16 01:58:37;;;;;;;57.63;54.25;;;;;;;13.81;75.54;100647.56;4968214;28;102841;-51
2022/11/16 02:01:04;;;;;;;57.70;54.40;;;;;;;13.81;75.46;100650.28;4960507;28;103883;-51
2022/11/16 02:03:30;;;;;;;63.17;59.55;;;;;;;13.81;75.51;100644.81;4969659;28;102880;-51
2022/11/16 02:06:18;;;;;;;58.28;54.88;;;;;;;13.81;75.34;100642.09;4961011;28;102478;-51
2022/11/16 02:12:11;;;;;;;55.25;52.05;;;;;;;13.83;75.38;100642.63;4968872;28;103947;-51
2022/11/16 02:15:03;;;;;;;53.63;50.33;;;;;;;13.82;75.49;100655.47;4964433;28;102028;-52
2022/11/16 02:17:39;;;;;;;54.35;51.17;;;;;;;13.81;75.45;100653.03;4958386;28;102662;-51
2022/11/16 02:20:39;;;;;;;55.45;52.20;;;;;;;13.82;75.48;100649.19;4960267;28;103045;-51
2022/11/16 02:23:23;;;;;;;57.53;54.20;;;;;;;13.81;75.47;100645.66;4962833;28;104069;-51
2022/11/16 02:26:01;;;;;;;56.75;53.47;;;;;;;13.82;75.56;100646.47;4961437;28;102597;-51
2022/11/16 02:28:35;;;;;;;59.00;55.50;;;;;;;13.80;75.48;100641.28;4956485;28;102126;-51
2022/11/16 02:31:10;;;;;;;57.63;54.28;;;;;;;13.81;75.96;100647.56;4965462;28;102281;-50
2022/11/16 02:33:39;;;;;;;54.70;51.45;;;;;;;13.82;75.54;100646.47;4960768;28;104341;-50
2022/11/16 02:36:10;;;;;;;54.05;50.97;;;;;;;13.81;75.37;100636.63;4964372;28;102942;-51
2022/11/16 02:38:40;;;;;;;53.90;50.78;;;;;;;13.82;75.48;100632.78;4965206;28;102671;-51
2022/11/16 02:41:10;;;;;;;57.47;54.15;;;;;;;13.80;75.45;100632.25;4958133;28;102345;-51
2022/11/16 02:43:42;;;;;;;55.20;52.08;;;;;;;13.81;75.41;100631.13;4960036;28;108749;-51
2022/11/16 02:46:15;;;;;;;54.35;51.22;;;;;;;13.80;75.36;100624.06;4964927;28;102388;-51
2022/11/16 02:48:49;;;;;;;56.15;52.97;;;;;;;13.82;75.52;100619.13;4965785;28;102023;-51
2022/11/16 02:51:17;;;;;;;57.20;53.97;;;;;;;13.82;75.71;100617.19;4958216;28;102168;-51
2022/11/16 02:54:11;;;;;;;50.47;47.67;;;;;;;13.80;75.51;100611.19;4962318;28;104249;-51
2022/11/16 02:56:46;;;;;;;51.95;48.85;;;;;;;13.80;75.49;100602.97;4957564;28;102262;-50
2022/11/16 02:59:14;;;;;;;55.35;52.25;;;;;;;13.81;75.71;100599.16;4960533;28;102534;-50
2022/11/16 03:01:47;;;;;;;56.78;53.60;;;;;;;13.81;75.50;100599.16;4965331;28;102128;-50
2022/11/16 03:04:19;;;;;;;52.63;49.65;;;;;;;13.81;75.54;100601.06;4961325;28;104147;-51
2022/11/16 03:06:49;;;;;;;53.05;50.08;;;;;;;13.82;75.35;100599.97;4955577;28;101976;-51
2022/11/16 03:09:19;;;;;;;54.67;51.55;;;;;;;13.81;75.39;100604.63;4961607;28;102327;-51
2022/11/16 03:12:00;;;;;;;59.08;55.78;;;;;;;13.81;75.47;100592.84;4959717;28;102215;-51
2022/11/16 03:14:33;;;;;;;51.65;48.65;;;;;;;13.81;75.63;100592.84;4957116;28;104738;-51
2022/11/16 03:17:04;;;;;;;52.20;49.22;;;;;;;13.81;75.63;100584.63;4974421;28;102460;-51
2022/11/16 03:19:39;;;;;;;53.70;50.63;;;;;;;13.82;75.33;100584.38;4974562;28;102313;-51
2022/11/16 03:22:11;;;;;;;61.75;58.33;;;;;;;13.83;75.41;100582.44;4971739;28;102076;-51
2022/11/16 03:24:37;;;;;;;57.65;54.38;;;;;;;13.79;75.65;100579.47;4968116;28;104137;-51
2022/11/16 03:27:11;;;;;;;54.72;51.47;;;;;;;13.82;75.56;100572.63;4966658;28;101990;-51
2022/11/16 03:29:41;;;;;;;54.85;51.83;;;;;;;13.80;75.55;100569.34;4956435;28;102249;-51
2022/11/16 03:32:15;;;;;;;56.22;52.92;;;;;;;13.81;75.57;100562.75;4960637;28;102181;-51
2022/11/16 03:34:50;;;;;;;52.75;49.72;;;;;;;13.82;75.42;100567.16;4960344;28;103662;-51
2022/11/16 03:37:17;;;;;;;56.65;53.40;;;;;;;13.80;75.70;100558.41;4965319;28;102202;-51
2022/11/16 03:39:44;;;;;;;58.88;55.55;;;;;;;13.81;75.42;100560.03;4966609;28;102687;-51
2022/11/16 03:42:13;;;;;;;55.33;52.15;;;;;;;13.80;75.40;100553.75;4962587;28;102377;-51
2022/11/16 03:44:42;;;;;;;58.50;55.15;;;;;;;13.79;75.55;100552.13;4961889;28;103999;-51
2022/11/16 03:47:10;;;;;;;55.83;52.58;;;;;;;13.81;75.54;100549.91;4955262;28;102416;-51
2022/11/16 03:49:37;;;;;;;51.22;48.28;;;;;;;13.81;75.58;100549.09;4960531;28;102441;-51
2022/11/16 03:52:04;;;;;;;50.08;47.22;;;;;;;13.81;75.62;100549.09;4960421;28;102297;-51
2022/11/16 03:54:30;;;;;;;55.85;52.58;;;;;;;13.81;75.47;100540.88;4959579;28;104059;-51
2022/11/16 03:56:57;;;;;;;58.03;54.78;;;;;;;13.81;75.35;100543.63;4964793;28;102784;-51
2022/11/16 03:59:23;;;;;;;58.70;55.40;;;;;;;13.80;75.41;100536.53;4975063;28;102570;-51
2022/11/16 04:01:50;;;;;;;55.85;52.65;;;;;;;13.81;75.70;100543.63;4962717;28;102212;-51
2022/11/16 04:28:11;;;;;;;50.05;47.15;;;;;;;13.81;75.52;100522.56;4969525;28;103927;-51
2022/11/16 04:29:08;;;;;;;53.10;50.00;;;;;;;13.81;75.62;100519.00;4968540;28;102560;-51
2022/11/16 04:39:53;;;;;;;56.83;53.58;;;;;;;13.82;75.67;100518.72;4964464;28;102131;-52
2022/11/16 04:42:21;;;;;;;53.15;50.03;;;;;;;13.82;75.66;100515.19;4963218;28;102630;-51
2022/11/16 04:47:33;;;;;;;46.38;43.65;;;;;;;13.81;75.68;100510.78;4960174;28;103839;-51
2022/11/16 04:49:59;;;;;;;51.17;48.28;;;;;;;13.82;75.69;100512.44;4964438;28;102659;-51
2022/11/16 04:52:27;;;;;;;50.75;47.78;;;;;;;13.81;75.65;100511.63;4970890;28;102456;-51
2022/11/16 04:54:54;;;;;;;54.97;51.88;;;;;;;13.81;75.51;100508.06;4969964;28;102340;-51
2022/11/16 04:57:20;;;;;;;51.30;48.25;;;;;;;13.80;75.70;100496.31;4956407;28;103872;-51
2022/11/16 04:59:46;;;;;;;57.20;53.90;;;;;;;13.82;75.54;100498.75;4971534;28;102504;-51
2022/11/16 05:02:14;;;;;;;53.20;50.17;;;;;;;13.81;75.44;100488.91;4959993;28;102499;-51
2022/11/16 05:04:42;;;;;;;58.22;55.00;;;;;;;13.80;75.51;100484.56;4966631;28;102235;-51
2022/11/16 05:07:10;;;;;;;53.17;50.17;;;;;;;13.81;75.44;100483.44;4956807;28;103982;-51
2022/11/16 05:09:41;;;;;;;;;;;;;;;13.81;75.62;100475.22;4958059;28;102381;-51
2022/11/16 05:12:08;;;;;;;46.42;43.72;;;;;;;13.80;75.48;100473.63;4956990;28;102492;-51
2022/11/16 05:14:37;;;;;;;49.78;46.85;;;;;;;13.79;75.62;100472.00;4963041;28;102211;-51
2022/11/16 05:17:03;;;;;;;56.53;53.15;;;;;;;13.80;75.52;100471.69;4957703;28;103967;-51
2022/11/16 05:22:15;;;;;;;53.55;50.45;;;;;;;13.81;75.49;100472.50;4964453;28;102198;-51
2022/11/16 05:24:44;;;;;;;53.88;50.88;;;;;;;13.80;75.58;100465.41;4969455;28;102262;-51
2022/11/16 05:27:17;;;;;;;54.88;51.60;;;;;;;13.82;75.46;100463.19;4962970;28;103906;-51
2022/11/16 05:29:44;;;;;;;54.20;50.95;;;;;;;13.81;75.47;100451.47;4969688;28;102987;-51
2022/11/16 05:32:12;;;;;;;55.13;52.05;;;;;;;13.81;75.54;100450.63;4959839;28;102049;-51
2022/11/16 05:34:38;;;;;;;55.15;51.90;;;;;;;13.79;75.46;100445.47;4958332;28;102450;-51
2022/11/16 05:37:05;;;;;;;58.42;55.03;;;;;;;13.80;75.62;100449.81;4956181;28;103980;-51
2022/11/16 05:39:32;;;;;;;52.90;49.72;;;;;;;13.79;75.37;100447.38;4969842;28;102439;-51
2022/11/16 05:42:01;;;;;;;61.03;57.47;;;;;;;13.79;75.26;100442.72;4961013;28;102444;-51
2022/11/16 05:44:27;;;;;;;55.17;51.93;;;;;;;13.79;75.49;100447.38;4964421;28;102167;-51
2022/11/16 05:46:54;;;;;;;55.25;52.03;;;;;;;13.78;75.39;100443.84;4958656;28;103915;-51
2022/11/16 05:49:21;;;;;;;52.63;49.42;;;;;;;13.78;75.59;100445.78;4957351;28;102333;-51
2022/11/16 05:51:48;;;;;;;53.05;49.97;;;;;;;13.79;75.45;100447.38;4962441;28;102294;-51
2022/11/16 05:54:17;;;;;;;52.78;49.53;;;;;;;13.79;75.35;100447.38;4957983;28;102122;-51
2022/11/16 05:56:44;;;;;;;53.70;50.53;;;;;;;13.77;75.73;100450.41;4963790;28;103994;-51
2022/11/16 05:59:13;;;;;;;51.42;48.30;;;;;;;13.79;75.53;100461.06;4968358;28;102471;-51
2022/11/16 06:01:39;;;;;;;52.90;49.75;;;;;;;13.78;75.41;100453.97;4964170;28;102201;-51
2022/11/16 06:04:06;;;;;;;54.08;50.95;;;;;;;13.78;75.65;100445.78;4968552;28;102166;-51
2022/11/16 06:06:33;;;;;;;54.75;51.50;;;;;;;13.81;75.39;100456.09;4958748;28;107855;-52
2022/11/16 06:09:00;;;;;;;58.08;54.70;;;;;;;13.80;75.52;100457.22;4958515;28;102495;-52
2022/11/16 06:11:28;;;;;;;59.25;55.88;;;;;;;13.79;75.43;100445.47;4963440;28;102101;-52
2022/11/16 06:13:54;;;;;;;54.72;51.55;;;;;;;13.80;75.38;100454.47;4960698;28;102233;-52
2022/11/16 06:16:22;;;;;;;56.40;53.00;;;;;;;13.79;75.63;100440.00;4965789;28;104001;-51
2022/11/16 06:18:49;;;;;;;60.20;56.75;;;;;;;13.79;75.63;100440.00;4964841;28;102704;-50
2022/11/16 06:21:18;;;;;;;53.85;50.65;;;;;;;13.81;75.44;100434.22;4957811;28;102611;-50
2022/11/16 06:23:44;;;;;;;54.50;51.33;;;;;;;13.80;75.15;100438.06;4965441;28;102179;-51
2022/11/16 06:26:11;;;;;;;58.38;55.05;;;;;;;13.82;75.62;100430.38;4961157;28;104041;-50
2022/11/16 06:28:38;;;;;;;54.20;50.95;;;;;;;13.80;75.65;100432.59;4968131;28;102407;-50
2022/11/16 06:31:05;;;;;;;53.05;50.00;;;;;;;13.80;75.54;100421.66;4967300;28;102594;-50
2022/11/16 06:33:33;;;;;;;58.50;55.08;;;;;;;13.81;75.51;100428.72;4961235;28;102221;-50
2022/11/16 06:36:00;;;;;;;54.92;51.80;;;;;;;13.81;75.92;100428.72;4955527;28;104467;-50
2022/11/16 06:38:27;;;;;;;55.42;52.13;;;;;;;13.81;75.44;100418.63;4959308;28;102343;-50
2022/11/16 06:40:56;;;;;;;56.50;53.20;;;;;;;13.81;75.57;100426.00;4957672;28;102418;-50
2022/11/16 06:43:24;;;;;;;49.80;46.85;;;;;;;13.80;75.58;100416.19;4956793;28;102597;-50
2022/11/16 06:45:55;;;;;;;56.38;53.08;;;;;;;13.81;75.38;100423.25;4957215;28;104142;-50
2022/11/16 06:48:22;;;;;;;55.88;52.67;;;;;;;13.81;75.64;100418.63;4963776;28;102289;-50
2022/11/16 06:50:51;;;;;;;54.75;51.53;;;;;;;13.82;75.62;100413.97;4964154;28;102048;-50
2022/11/16 06:53:18;;;;;;;56.28;52.92;;;;;;;13.82;75.62;100419.44;4961234;28;102160;-50
2022/11/16 06:55:44;;;;;;;54.90;51.75;;;;;;;13.83;75.62;100416.38;4961864;28;103983;-50
2022/11/16 06:58:11;;;;;;;53.63;50.35;;;;;;;13.82;75.59;100411.22;4957788;28;102500;-50
2022/11/16 07:00:38;;;;;;;56.58;53.30;;;;;;;13.83;75.71;100402.72;4963896;28;102102;-50
2022/11/16 07:03:05;;;;;;;55.58;52.30;;;;;;;13.83;75.57;100396.44;4966690;28;102359;-49
2022/11/16 07:05:39;;;;;;;55.38;52.22;;;;;;;13.83;75.32;100399.97;4965346;28;105647;-50
2022/11/16 07:08:07;;;;;;;55.63;52.47;;;;;;;13.85;75.69;100402.44;4956537;28;102034;-50
2022/11/16 07:10:34;;;;;;;51.90;48.88;;;;;;;13.84;75.51;100400.78;4955164;28;102149;-50
2022/11/16 07:13:03;;;;;;;53.97;50.67;;;;;;;13.87;75.38;100389.25;4962598;28;102242;-50
2022/11/16 07:15:31;;;;;;;54.97;51.90;;;;;;;13.86;75.55;100398.56;4967117;28;104047;-50
2022/11/16 07:18:04;;;;;;;57.13;53.47;;;;;;;13.77;75.29;100389.44;4963754;28;102614;-50
2022/11/16 07:20:30;;;;;;;54.22;50.65;;;;;;;13.79;75.54;100384.47;4961420;28;102291;-51
2022/11/16 07:22:59;;;;;;;55.53;52.08;;;;;;;13.82;75.81;100381.16;4965855;28;103018;-51
2022/11/16 07:25:27;;;;;;;57.28;54.00;;;;;;;13.80;75.46;100381.44;4958608;28;103964;-50
2022/11/16 07:27:54;;;;;;;52.33;49.10;;;;;;;13.80;75.40;100378.69;4965940;28;102756;-51
2022/11/16 07:30:20;;;;;;;59.10;54.95;;;;;;;13.81;75.24;100387.72;4968103;28;102467;-50
2022/11/16 07:32:47;;;;;;;57.60;53.85;;;;;;;13.80;75.24;100375.97;4961486;28;102248;-50
2022/11/16 07:35:14;;;;;;;56.17;52.60;;;;;;;13.82;74.90;100381.97;4968558;28;104050;-50
2022/11/16 07:37:41;;;;;;;61.00;57.13;;;;;;;13.81;75.33;100379.50;4963516;28;102303;-51
2022/11/16 07:40:08;;;;;;;56.60;53.15;;;;;;;13.81;75.09;100369.41;4963528;28;102970;-50
2022/11/16 07:42:36;;;;;;;59.45;55.90;;;;;;;13.81;75.11;100368.56;4962432;28;102384;-50
2022/11/16 07:45:06;;;;;;;60.07;56.30;;;;;;;13.82;74.94;100370.22;4961873;28;104092;-50
2022/11/16 07:47:35;;;;;;;61.15;57.28;;;;;;;13.84;74.98;100362.50;4966837;28;103139;-50
2022/11/16 07:50:02;;;;;;;58.30;54.72;;;;;;;13.85;74.83;100364.94;4962038;28;103394;-50
2022/11/16 07:52:29;;;;;;;61.05;57.03;;;;;;;13.84;75.08;100360.56;4964519;28;102264;-51
2022/11/16 07:54:55;;;;;;;64.18;60.25;;;;;;;13.85;74.93;100355.94;4959390;28;104046;-50
2022/11/16 07:57:21;;;;;;;61.50;57.83;;;;;;;13.85;75.18;100350.47;4966746;28;103937;-50
2022/11/16 07:59:49;;;;;;;58.80;55.42;;;;;;;13.84;75.17;100357.03;4960838;28;102450;-50
2022/11/16 08:02:16;;;;;;;55.83;52.53;;;;;;;13.84;74.95;100348.81;4968607;28;102329;-50
2022/11/16 08:04:43;;;;;;;60.88;57.28;;;;;;;13.85;75.33;100355.94;4969051;28;103930;-50
2022/11/16 08:07:10;;;;;;;61.78;58.10;;;;;;;13.85;75.15;100353.19;4966287;28;102189;-50
2022/11/16 08:09:38;;;;;;;59.65;56.10;;;;;;;13.78;74.17;100339.91;4964300;28;102610;-52
2022/11/16 08:12:06;;;;;;;58.40;54.85;;;;;;;13.79;74.92;100346.19;4961705;28;102700;-51
2022/11/16 08:14:33;;;;;;;59.05;55.38;;;;;;;13.83;75.32;100344.47;4966334;28;104027;-52
2022/11/16 08:17:06;;;;;;;60.90;57.15;;;;;;;13.81;75.37;100341.22;4968031;28;102133;-53
2022/11/16 08:19:33;;;;;;;66.47;61.78;;;;;;;13.83;74.99;100345.28;4971021;28;102793;-52
2022/11/16 08:22:00;;;;;;;60.83;56.72;;;;;;;13.84;74.86;100346.09;4961748;28;102428;-52
2022/11/16 08:24:26;;;;;;;60.83;57.10;;;;;;;13.85;74.72;100331.31;4963862;28;103895;-52
2022/11/16 08:26:53;;;;;;;62.08;58.22;;;;;;;13.86;74.43;100327.47;4966922;28;102177;-51
2022/11/16 08:29:19;;;;;;;58.83;55.30;;;;;;;13.85;74.56;100323.09;4957291;28;102095;-52
2022/11/16 08:31:46;;;;;;;67.28;63.28;;;;;;;13.84;74.94;100326.94;4973540;28;102142;-52
2022/11/16 08:34:14;;;;;;;64.38;60.60;;;;;;;13.84;74.85;100318.72;4957316;28;103907;-52
2022/11/16 08:36:42;;;;;;;64.68;60.85;;;;;;;13.84;74.79;100313.25;4957114;28;102412;-52
2022/11/16 08:39:08;;;;;;;66.70;62.72;;;;;;;13.85;74.79;100306.69;4963391;28;102115;-52
2022/11/16 08:41:36;;;;;;;42.50;39.93;;;;;;;13.85;74.81;100312.16;4958904;28;102410;-52
2022/11/16 08:44:03;;;;;;;63.38;59.53;;;;;;;13.84;74.92;100302.31;4957613;28;104187;-51
2022/11/16 08:46:30;;;;;;;65.72;61.88;;;;;;;13.86;74.79;100294.63;4958053;28;102361;-52
2022/11/16 08:52:41;;;;;;;60.78;57.08;;;;;;;13.86;74.72;100286.44;4961111;28;102669;-52
2022/11/16 08:55:09;;;;;;;63.15;59.50;;;;;;;13.87;74.66;100285.31;4961467;28;104202;-51
2022/11/16 08:57:36;;;;;;;;;;;;;;;13.87;74.71;100293.50;4959845;28;102268;-51
2022/11/16 09:00:03;;;;;;;50.17;46.75;;;;;;;13.87;74.73;100288.03;4958927;28;101939;-51
2022/11/16 09:02:30;;;;;;;58.55;55.00;;;;;;;13.86;74.64;100284.50;4974400;28;103435;-51
2022/11/16 09:04:57;;;;;;;58.45;54.88;;;;;;;13.88;74.65;100278.72;4966771;28;103941;-51
2022/11/16 09:07:23;;;;;;;68.15;64.15;;;;;;;13.86;74.48;100267.28;4957747;28;102390;-52
2022/11/16 09:09:51;;;;;;;65.35;61.38;;;;;;;13.86;74.64;100267.28;4957128;28;102452;-51
2022/11/16 09:12:18;;;;;;;68.50;64.40;;;;;;;13.86;74.69;100262.63;4969156;28;102230;-52
2022/11/16 09:14:45;;;;;;;64.57;60.65;;;;;;;13.85;75.09;100252.00;4975499;28;104214;-51
2022/11/16 09:17:13;;;;;;;64.90;60.97;;;;;;;13.88;74.85;100245.88;4968240;28;102823;-52
2022/11/16 09:19:39;;;;;;;65.45;61.42;;;;;;;13.86;74.62;100246.22;4976486;28;102385;-52
2022/11/16 09:22:06;;;;;;;68.35;64.22;;;;;;;13.85;74.49;100244.59;4976609;28;102393;-51
2022/11/16 09:24:33;;;;;;;68.00;63.97;;;;;;;13.86;74.97;100256.34;4975260;28;104073;-51
2022/11/16 09:27:01;;;;;;;66.82;62.88;;;;;;;13.86;74.67;100245.41;4963809;28;102619;-52
2022/11/16 09:29:28;;;;;;;64.15;60.17;;;;;;;13.85;74.96;100246.53;4962190;28;102122;-52
2022/11/16 09:31:57;;;;;;;63.28;59.45;;;;;;;13.86;74.83;100242.66;4968618;28;102185;-51
2022/11/16 09:34:24;;;;;;;70.35;66.10;;;;;;;13.88;74.56;100243.16;4973552;28;107983;-52
2022/11/16 09:36:50;;;;;;;64.47;60.45;;;;;;;13.87;74.83;100241.53;4963066;28;102587;-52
2022/11/16 09:39:17;;;;;;;69.13;65.03;;;;;;;13.87;74.92;100228.66;4962548;28;102522;-52
2022/11/16 09:42:01;;;;;;;64.60;60.75;;;;;;;13.86;74.86;100220.78;4957806;28;102307;-52
2022/11/16 09:44:48;;;;;;;63.33;59.40;;;;;;;13.87;74.66;100219.66;4956324;28;104278;-52
2022/11/16 09:47:18;;;;;;;66.35;62.38;;;;;;;13.86;74.62;100216.13;4966274;28;102228;-52
2022/11/16 09:49:50;;;;;;;66.55;62.42;;;;;;;13.87;74.61;100225.13;4975224;28;102107;-52
2022/11/16 09:52:25;;;;;;;66.18;62.05;;;;;;;13.88;74.68;100210.31;4967794;28;102441;-52
2022/11/16 09:54:53;;;;;;;68.65;64.25;;;;;;;13.89;74.56;100206.50;4973925;28;103958;-52
2022/11/16 09:57:26;;;;;;;69.13;64.85;;;;;;;13.88;74.85;100199.38;4964057;28;102194;-51
2022/11/16 09:59:59;;;;;;;68.82;64.45;;;;;;;13.89;74.65;100195.56;4959296;28;102238;-51
2022/11/16 10:02:33;;;;;;;64.00;59.80;;;;;;;13.87;74.77;100192.31;4966067;28;102238;-52
2022/11/16 10:05:07;;;;;;;70.78;66.53;;;;;;;13.86;74.65;100191.50;4963782;28;103936;-52
2022/11/16 10:07:40;;;;;;;65.38;61.25;;;;;;;13.86;74.96;100185.22;4958722;28;102640;-52
2022/11/16 10:10:11;;;;;;;69.43;65.13;;;;;;;13.87;74.64;100181.38;4960969;28;102036;-52
2022/11/16 10:12:45;;;;;;;72.68;68.30;;;;;;;13.87;74.74;100175.88;4963099;28;102867;-52
2022/11/16 10:15:46;;;;;;;68.40;64.18;;;;;;;13.89;74.49;100179.16;4959221;28;104014;-52
2022/11/16 10:18:31;;;;;;;64.60;60.47;;;;;;;13.87;74.46;100159.47;4938949;28;102089;-52
2022/11/16 10:21:24;;;;;;;66.63;62.45;;;;;;;13.87;74.57;100152.09;4961883;28;102950;-52
2022/11/16 10:24:08;;;;;;;64.53;60.35;;;;;;;13.87;74.70;100154.81;4960977;28;102398;-51
2022/11/16 10:26:43;;;;;;;66.30;61.90;;;;;;;13.87;74.74;100148.53;4962138;28;103969;-52
2022/11/16 10:29:24;;;;;;;65.28;61.20;;;;;;;13.88;74.49;100156.47;4962908;28;102124;-51
2022/11/16 10:32:09;;;;;;;66.25;62.00;;;;;;;13.89;74.48;100157.25;4960274;28;102274;-51
2022/11/16 10:34:44;;;;;;;72.55;67.90;;;;;;;13.88;74.58;100151.00;4961669;28;102730;-52
2022/11/16 10:37:12;;;;;;;69.15;64.85;;;;;;;13.87;74.80;100145.81;4959254;28;104092;-51
2022/11/16 10:39:39;;;;;;;70.30;65.93;;;;;;;13.87;74.76;100149.34;4962545;28;102453;-52
2022/11/16 10:42:11;;;;;;;72.82;68.43;;;;;;;13.88;74.79;100141.94;4961273;28;102623;-52
2022/11/16 10:44:40;;;;;;;73.82;69.32;;;;;;;13.90;74.87;100142.47;4962573;28;102241;-52
2022/11/16 10:47:17;;;;;;;66.15;62.00;;;;;;;13.87;74.77;100140.34;4958949;28;103854;-52
2022/11/16 10:49:52;;;;;;;71.15;66.65;;;;;;;13.88;74.75;100133.75;4959005;28;102462;-52
2022/11/16 10:52:19;;;;;;;69.82;65.45;;;;;;;13.88;74.59;100133.75;4958083;28;102840;-51
2022/11/16 10:54:45;;;;;;;71.75;67.28;;;;;;;13.87;74.63;100124.72;4959209;28;104939;-52
2022/11/16 10:57:16;;;;;;;66.95;62.65;;;;;;;13.90;74.75;100126.06;4956436;28;104334;-52
2022/11/16 10:59:44;;;;;;;68.22;64.00;;;;;;;13.88;74.85;100120.06;4960899;28;102523;-51
2022/11/16 11:02:30;;;;;;;65.45;61.13;;;;;;;13.89;74.73;100110.75;4958034;28;102230;-52
2022/11/16 11:05:02;;;;;;;71.82;67.30;;;;;;;13.88;74.79;100106.38;4963432;28;102875;-51
2022/11/16 11:07:31;;;;;;;73.05;68.38;;;;;;;13.87;74.74;100110.25;4961859;28;104127;-52
2022/11/16 11:09:58;;;;;;;68.97;64.68;;;;;;;13.88;74.73;100109.13;4959895;28;102578;-51
2022/11/16 11:12:39;;;;;;;;;;;;;;;13.87;74.80;100105.59;4964700;28;102058;-52
2022/11/16 11:15:21;;;;;;;58.07;54.23;;;;;;;13.88;74.91;100106.38;4969211;28;102465;-51
2022/11/16 11:18:10;;;;;;;62.92;58.67;;;;;;;13.88;74.79;100109.97;4964108;28;104131;-52
2022/11/16 11:20:40;;;;;;;62.67;58.53;;;;;;;13.87;74.86;100113.78;4963576;28;102297;-51
2022/11/16 11:23:13;;;;;;;65.88;61.65;;;;;;;13.88;74.61;100103.66;4965742;28;104568;-52
2022/11/16 11:25:49;;;;;;;65.30;61.08;;;;;;;13.88;74.80;100106.38;4966242;28;102210;-52
2022/11/16 11:28:20;;;;;;;66.38;61.90;;;;;;;13.87;74.74;100111.06;4966727;28;104285;-52
2022/11/16 11:30:57;;;;;;;68.60;64.15;;;;;;;13.87;74.85;100105.59;4964047;28;102325;-52
2022/11/16 11:33:28;;;;;;;66.32;61.92;;;;;;;13.88;75.01;100100.91;4958350;28;102439;-52
2022/11/16 11:36:00;;;;;;;65.93;61.42;;;;;;;13.90;74.90;100107.72;4960729;28;102205;-52
2022/11/16 11:38:28;;;;;;;66.53;62.33;;;;;;;13.88;74.76;100107.22;4967430;28;103898;-51
2022/11/16 11:40:59;;;;;;;67.65;63.00;;;;;;;13.89;74.77;100108.84;4957297;28;102489;-52
2022/11/16 11:43:27;;;;;;;73.10;68.47;;;;;;;13.90;74.61;100109.63;4954961;28;102465;-52
2022/11/16 11:46:02;;;;;;;73.93;69.13;;;;;;;13.88;74.75;100099.03;4964951;28;102199;-52
2022/11/16 11:48:37;;;;;;;68.70;64.40;;;;;;;13.88;74.74;100099.03;4972723;28;103888;-52
2022/11/16 11:51:12;;;;;;;66.93;62.35;;;;;;;13.89;74.85;100097.88;4974449;28;101916;-52
2022/11/16 11:53:45;;;;;;;61.88;57.85;;;;;;;13.88;74.99;100085.34;4973913;28;102547;-52
2022/11/16 11:56:13;;;;;;;71.53;66.90;;;;;;;13.88;74.77;100095.44;4966388;28;102448;-52
2022/11/16 11:58:41;;;;;;;70.55;65.88;;;;;;;13.89;74.82;100095.16;4957179;28;103957;-51